sensor_id;sensor_type;location;lat;lon;timestamp;P1;durP1;ratioP1;P2;durP2;ratioP2
17283;SDS011;8760;52.248;20.952;2022-10-31T00:00:09;25.23;;;16.90;;
17283;SDS011;8760;52.248;20.952;2022-10-31T00:02:36;22.33;;;15.70;;
17283;SDS011;8760;52.248;20.952;2022-10-31T00:05:04;20.80;;;15.77;;
17283;SDS011;8760;52.248;20.952;2022-10-31T00:07:31;26.80;;;18.87;;
17283;SDS011;8760;52.248;20.952;2022-10-31T00:09:58;25.70;;;18.20;;
17283;SDS011;8760;52.248;20.952;2022-10-31T00:12:25;24.20;;;17.73;;
17283;SDS011;8760;52.248;20.952;2022-10-31T00:14:54;21.80;;;17.17;;
17283;SDS011;8760;52.248;20.952;2022-10-31T00:17:21;22.87;;;17.20;;
17283;SDS011;8760;52.248;20.952;2022-10-31T00:19:48;24.60;;;16.90;;
17283;SDS011;8760;52.248;20.952;2022-10-31T00:22:15;22.77;;;16.80;;
17283;SDS011;8760;52.248;20.952;2022-10-31T00:24:42;26.40;;;17.40;;
17283;SDS011;8760;52.248;20.952;2022-10-31T00:27:09;23.13;;;17.47;;
17283;SDS011;8760;52.248;20.952;2022-10-31T00:29:36;24.77;;;16.53;;
17283;SDS011;8760;52.248;20.952;2022-10-31T00:32:04;24.60;;;17.20;;
17283;SDS011;8760;52.248;20.952;2022-10-31T00:34:31;20.57;;;16.57;;
17283;SDS011;8760;52.248;20.952;2022-10-31T00:36:58;26.20;;;17.17;;
17283;SDS011;8760;52.248;20.952;2022-10-31T00:39:25;22.03;;;17.10;;
17283;SDS011;8760;52.248;20.952;2022-10-31T00:41:52;21.47;;;16.37;;
17283;SDS011;8760;52.248;20.952;2022-10-31T00:44:19;24.17;;;18.57;;
17283;SDS011;8760;52.248;20.952;2022-10-31T00:46:46;26.77;;;17.40;;
17283;SDS011;8760;52.248;20.952;2022-10-31T00:49:14;20.00;;;16.60;;
17283;SDS011;8760;52.248;20.952;2022-10-31T00:51:42;24.23;;;16.27;;
17283;SDS011;8760;52.248;20.952;2022-10-31T00:54:09;22.50;;;16.10;;
17283;SDS011;8760;52.248;20.952;2022-10-31T00:56:36;25.40;;;17.53;;
17283;SDS011;8760;52.248;20.952;2022-10-31T00:59:03;23.10;;;15.80;;
17283;SDS011;8760;52.248;20.952;2022-10-31T01:01:30;21.97;;;16.30;;
17283;SDS011;8760;52.248;20.952;2022-10-31T01:03:57;22.63;;;16.07;;
17283;SDS011;8760;52.248;20.952;2022-10-31T01:06:25;22.53;;;16.00;;
17283;SDS011;8760;52.248;20.952;2022-10-31T01:08:52;23.43;;;15.93;;
17283;SDS011;8760;52.248;20.952;2022-10-31T01:11:20;22.60;;;16.30;;
17283;SDS011;8760;52.248;20.952;2022-10-31T01:13:49;23.10;;;16.30;;
17283;SDS011;8760;52.248;20.952;2022-10-31T01:16:19;21.27;;;15.33;;
17283;SDS011;8760;52.248;20.952;2022-10-31T01:18:47;21.93;;;16.07;;
17283;SDS011;8760;52.248;20.952;2022-10-31T01:21:14;22.87;;;15.80;;
17283;SDS011;8760;52.248;20.952;2022-10-31T01:23:44;19.97;;;15.80;;
17283;SDS011;8760;52.248;20.952;2022-10-31T01:26:11;21.07;;;16.10;;
17283;SDS011;8760;52.248;20.952;2022-10-31T01:28:43;20.60;;;15.33;;
17283;SDS011;8760;52.248;20.952;2022-10-31T01:31:12;22.37;;;15.70;;
17283;SDS011;8760;52.248;20.952;2022-10-31T01:33:39;21.57;;;15.93;;
17283;SDS011;8760;52.248;20.952;2022-10-31T01:36:13;22.77;;;15.93;;
17283;SDS011;8760;52.248;20.952;2022-10-31T01:38:43;21.97;;;15.73;;
17283;SDS011;8760;52.248;20.952;2022-10-31T01:41:11;22.27;;;14.93;;
17283;SDS011;8760;52.248;20.952;2022-10-31T01:43:50;24.43;;;14.77;;
17283;SDS011;8760;52.248;20.952;2022-10-31T01:46:20;18.83;;;14.87;;
17283;SDS011;8760;52.248;20.952;2022-10-31T01:48:50;20.50;;;15.27;;
17283;SDS011;8760;52.248;20.952;2022-10-31T01:51:18;19.93;;;14.40;;
17283;SDS011;8760;52.248;20.952;2022-10-31T01:53:50;19.93;;;15.00;;
17283;SDS011;8760;52.248;20.952;2022-10-31T01:56:20;21.77;;;15.40;;
17283;SDS011;8760;52.248;20.952;2022-10-31T01:58:47;23.70;;;15.40;;
17283;SDS011;8760;52.248;20.952;2022-10-31T02:01:15;21.37;;;15.90;;
17283;SDS011;8760;52.248;20.952;2022-10-31T02:03:42;22.70;;;15.53;;
17283;SDS011;8760;52.248;20.952;2022-10-31T02:06:13;18.73;;;14.37;;
17283;SDS011;8760;52.248;20.952;2022-10-31T02:08:47;21.43;;;14.47;;
17283;SDS011;8760;52.248;20.952;2022-10-31T02:11:16;19.37;;;14.77;;
17283;SDS011;8760;52.248;20.952;2022-10-31T02:13:43;20.37;;;14.10;;
17283;SDS011;8760;52.248;20.952;2022-10-31T02:16:10;20.23;;;13.63;;
17283;SDS011;8760;52.248;20.952;2022-10-31T02:18:37;19.40;;;13.93;;
17283;SDS011;8760;52.248;20.952;2022-10-31T02:21:07;20.27;;;14.93;;
17283;SDS011;8760;52.248;20.952;2022-10-31T02:26:57;22.60;;;13.83;;
17283;SDS011;8760;52.248;20.952;2022-10-31T02:29:41;19.13;;;13.93;;
17283;SDS011;8760;52.248;20.952;2022-10-31T02:32:32;18.37;;;13.70;;
17283;SDS011;8760;52.248;20.952;2022-10-31T02:35:13;18.63;;;13.63;;
17283;SDS011;8760;52.248;20.952;2022-10-31T02:37:53;18.77;;;13.37;;
17283;SDS011;8760;52.248;20.952;2022-10-31T02:40:25;17.53;;;14.03;;
17283;SDS011;8760;52.248;20.952;2022-10-31T02:42:58;18.50;;;13.50;;
17283;SDS011;8760;52.248;20.952;2022-10-31T02:45:32;19.47;;;13.97;;
17283;SDS011;8760;52.248;20.952;2022-10-31T02:48:07;18.10;;;13.40;;
17283;SDS011;8760;52.248;20.952;2022-10-31T02:50:39;17.00;;;12.97;;
17283;SDS011;8760;52.248;20.952;2022-10-31T02:53:08;18.30;;;13.87;;
17283;SDS011;8760;52.248;20.952;2022-10-31T02:55:47;21.67;;;14.83;;
17283;SDS011;8760;52.248;20.952;2022-10-31T02:58:21;21.40;;;14.60;;
17283;SDS011;8760;52.248;20.952;2022-10-31T03:00:55;17.97;;;13.93;;
17283;SDS011;8760;52.248;20.952;2022-10-31T03:03:53;18.90;;;13.63;;
17283;SDS011;8760;52.248;20.952;2022-10-31T03:06:40;20.27;;;13.23;;
17283;SDS011;8760;52.248;20.952;2022-10-31T03:09:12;18.90;;;13.30;;
17283;SDS011;8760;52.248;20.952;2022-10-31T03:11:49;18.57;;;13.40;;
17283;SDS011;8760;52.248;20.952;2022-10-31T03:14:24;19.13;;;13.47;;
17283;SDS011;8760;52.248;20.952;2022-10-31T03:16:58;22.57;;;13.93;;
17283;SDS011;8760;52.248;20.952;2022-10-31T03:19:29;20.53;;;13.67;;
17283;SDS011;8760;52.248;20.952;2022-10-31T03:22:03;18.70;;;12.90;;
17283;SDS011;8760;52.248;20.952;2022-10-31T03:24:34;18.30;;;13.17;;
17283;SDS011;8760;52.248;20.952;2022-10-31T03:27:05;19.50;;;13.53;;
17283;SDS011;8760;52.248;20.952;2022-10-31T03:29:37;19.40;;;13.77;;
17283;SDS011;8760;52.248;20.952;2022-10-31T03:32:06;18.07;;;13.90;;
17283;SDS011;8760;52.248;20.952;2022-10-31T03:34:38;17.93;;;13.80;;
17283;SDS011;8760;52.248;20.952;2022-10-31T03:37:07;21.67;;;13.70;;
17283;SDS011;8760;52.248;20.952;2022-10-31T03:39:36;20.17;;;13.90;;
17283;SDS011;8760;52.248;20.952;2022-10-31T03:42:07;18.27;;;13.73;;
17283;SDS011;8760;52.248;20.952;2022-10-31T03:44:37;23.63;;;14.57;;
17283;SDS011;8760;52.248;20.952;2022-10-31T03:47:08;17.87;;;14.03;;
17283;SDS011;8760;52.248;20.952;2022-10-31T03:49:35;20.67;;;14.23;;
17283;SDS011;8760;52.248;20.952;2022-10-31T03:52:06;20.67;;;15.00;;
17283;SDS011;8760;52.248;20.952;2022-10-31T03:54:40;24.23;;;14.60;;
17283;SDS011;8760;52.248;20.952;2022-10-31T03:57:11;25.00;;;13.97;;
17283;SDS011;8760;52.248;20.952;2022-10-31T03:59:43;22.13;;;14.73;;
17283;SDS011;8760;52.248;20.952;2022-10-31T04:02:14;18.13;;;14.00;;
17283;SDS011;8760;52.248;20.952;2022-10-31T04:04:44;20.07;;;13.70;;
17283;SDS011;8760;52.248;20.952;2022-10-31T04:07:13;17.73;;;13.77;;
17283;SDS011;8760;52.248;20.952;2022-10-31T04:09:43;19.03;;;14.13;;
17283;SDS011;8760;52.248;20.952;2022-10-31T04:12:13;18.00;;;13.77;;
17283;SDS011;8760;52.248;20.952;2022-10-31T04:14:42;20.30;;;13.57;;
17283;SDS011;8760;52.248;20.952;2022-10-31T04:17:12;20.20;;;13.30;;
17283;SDS011;8760;52.248;20.952;2022-10-31T04:19:42;20.20;;;14.10;;
17283;SDS011;8760;52.248;20.952;2022-10-31T04:22:10;20.07;;;14.60;;
17283;SDS011;8760;52.248;20.952;2022-10-31T04:24:37;17.80;;;13.53;;
17283;SDS011;8760;52.248;20.952;2022-10-31T04:27:05;24.37;;;15.20;;
17283;SDS011;8760;52.248;20.952;2022-10-31T04:29:33;21.80;;;15.27;;
17283;SDS011;8760;52.248;20.952;2022-10-31T04:32:00;24.40;;;14.83;;
17283;SDS011;8760;52.248;20.952;2022-10-31T04:34:26;19.60;;;14.20;;
17283;SDS011;8760;52.248;20.952;2022-10-31T04:36:53;21.70;;;14.77;;
17283;SDS011;8760;52.248;20.952;2022-10-31T04:39:22;20.63;;;14.30;;
17283;SDS011;8760;52.248;20.952;2022-10-31T04:41:48;25.57;;;14.90;;
17283;SDS011;8760;52.248;20.952;2022-10-31T04:44:15;21.23;;;15.70;;
17283;SDS011;8760;52.248;20.952;2022-10-31T04:46:42;21.70;;;15.03;;
17283;SDS011;8760;52.248;20.952;2022-10-31T04:49:09;24.10;;;15.27;;
17283;SDS011;8760;52.248;20.952;2022-10-31T04:51:36;23.73;;;15.97;;
17283;SDS011;8760;52.248;20.952;2022-10-31T04:54:03;23.97;;;15.70;;
17283;SDS011;8760;52.248;20.952;2022-10-31T04:56:32;24.60;;;15.93;;
17283;SDS011;8760;52.248;20.952;2022-10-31T04:58:58;26.43;;;17.40;;
17283;SDS011;8760;52.248;20.952;2022-10-31T05:01:26;26.27;;;17.43;;
17283;SDS011;8760;52.248;20.952;2022-10-31T05:03:52;30.40;;;17.20;;
17283;SDS011;8760;52.248;20.952;2022-10-31T05:06:20;25.57;;;17.57;;
17283;SDS011;8760;52.248;20.952;2022-10-31T05:08:47;24.03;;;17.27;;
17283;SDS011;8760;52.248;20.952;2022-10-31T05:11:13;24.73;;;16.50;;
17283;SDS011;8760;52.248;20.952;2022-10-31T05:13:42;26.87;;;18.17;;
17283;SDS011;8760;52.248;20.952;2022-10-31T05:16:09;27.70;;;18.30;;
17283;SDS011;8760;52.248;20.952;2022-10-31T05:18:35;28.80;;;17.27;;
17283;SDS011;8760;52.248;20.952;2022-10-31T05:21:02;23.23;;;16.87;;
17283;SDS011;8760;52.248;20.952;2022-10-31T05:23:31;22.67;;;17.20;;
17283;SDS011;8760;52.248;20.952;2022-10-31T05:25:58;23.47;;;17.50;;
17283;SDS011;8760;52.248;20.952;2022-10-31T05:28:24;22.70;;;16.57;;
17283;SDS011;8760;52.248;20.952;2022-10-31T05:30:53;22.23;;;17.23;;
17283;SDS011;8760;52.248;20.952;2022-10-31T05:33:20;29.57;;;18.07;;
17283;SDS011;8760;52.248;20.952;2022-10-31T05:35:46;22.40;;;17.17;;
17283;SDS011;8760;52.248;20.952;2022-10-31T05:38:14;22.40;;;17.03;;
17283;SDS011;8760;52.248;20.952;2022-10-31T05:40:41;21.10;;;16.97;;
17283;SDS011;8760;52.248;20.952;2022-10-31T05:43:08;23.90;;;17.30;;
17283;SDS011;8760;52.248;20.952;2022-10-31T05:45:35;27.07;;;17.70;;
17283;SDS011;8760;52.248;20.952;2022-10-31T05:48:03;23.70;;;17.97;;
17283;SDS011;8760;52.248;20.952;2022-10-31T05:50:31;26.97;;;17.47;;
17283;SDS011;8760;52.248;20.952;2022-10-31T05:52:59;24.13;;;18.23;;
17283;SDS011;8760;52.248;20.952;2022-10-31T05:55:27;26.77;;;17.10;;
17283;SDS011;8760;52.248;20.952;2022-10-31T05:57:55;24.30;;;16.77;;
17283;SDS011;8760;52.248;20.952;2022-10-31T06:00:23;24.83;;;17.20;;
17283;SDS011;8760;52.248;20.952;2022-10-31T06:02:57;22.87;;;17.73;;
17283;SDS011;8760;52.248;20.952;2022-10-31T06:05:26;24.53;;;18.10;;
17283;SDS011;8760;52.248;20.952;2022-10-31T06:07:53;28.53;;;17.90;;
17283;SDS011;8760;52.248;20.952;2022-10-31T06:10:20;24.10;;;18.00;;
17283;SDS011;8760;52.248;20.952;2022-10-31T06:12:47;24.00;;;17.80;;
17283;SDS011;8760;52.248;20.952;2022-10-31T06:15:14;22.40;;;17.90;;
17283;SDS011;8760;52.248;20.952;2022-10-31T06:17:41;23.83;;;18.10;;
17283;SDS011;8760;52.248;20.952;2022-10-31T06:20:08;25.33;;;16.77;;
17283;SDS011;8760;52.248;20.952;2022-10-31T06:22:37;28.00;;;17.77;;
17283;SDS011;8760;52.248;20.952;2022-10-31T06:25:04;25.67;;;17.57;;
17283;SDS011;8760;52.248;20.952;2022-10-31T06:27:31;28.00;;;17.60;;
17283;SDS011;8760;52.248;20.952;2022-10-31T06:29:58;25.57;;;18.53;;
17283;SDS011;8760;52.248;20.952;2022-10-31T06:32:25;25.23;;;20.20;;
17283;SDS011;8760;52.248;20.952;2022-10-31T06:34:52;35.63;;;21.50;;
17283;SDS011;8760;52.248;20.952;2022-10-31T06:37:19;25.67;;;18.87;;
17283;SDS011;8760;52.248;20.952;2022-10-31T06:39:47;26.47;;;19.53;;
17283;SDS011;8760;52.248;20.952;2022-10-31T06:42:14;23.60;;;18.63;;
17283;SDS011;8760;52.248;20.952;2022-10-31T06:44:42;25.30;;;18.90;;
17283;SDS011;8760;52.248;20.952;2022-10-31T06:47:09;27.83;;;20.00;;
17283;SDS011;8760;52.248;20.952;2022-10-31T06:49:35;23.80;;;19.17;;
17283;SDS011;8760;52.248;20.952;2022-10-31T06:52:02;23.60;;;19.17;;
17283;SDS011;8760;52.248;20.952;2022-10-31T06:54:31;26.17;;;19.33;;
17283;SDS011;8760;52.248;20.952;2022-10-31T06:57:00;26.17;;;19.87;;
17283;SDS011;8760;52.248;20.952;2022-10-31T06:59:26;26.50;;;19.17;;
17283;SDS011;8760;52.248;20.952;2022-10-31T07:01:53;24.00;;;19.80;;
17283;SDS011;8760;52.248;20.952;2022-10-31T07:04:20;25.70;;;18.80;;
17283;SDS011;8760;52.248;20.952;2022-10-31T07:06:50;26.03;;;19.27;;
17283;SDS011;8760;52.248;20.952;2022-10-31T07:09:17;29.57;;;20.47;;
17283;SDS011;8760;52.248;20.952;2022-10-31T07:11:43;25.13;;;18.73;;
17283;SDS011;8760;52.248;20.952;2022-10-31T07:14:12;27.07;;;18.80;;
17283;SDS011;8760;52.248;20.952;2022-10-31T07:16:39;24.87;;;18.50;;
17283;SDS011;8760;52.248;20.952;2022-10-31T07:19:06;24.07;;;18.07;;
17283;SDS011;8760;52.248;20.952;2022-10-31T07:21:32;23.57;;;18.07;;
17283;SDS011;8760;52.248;20.952;2022-10-31T07:23:59;24.07;;;17.53;;
17283;SDS011;8760;52.248;20.952;2022-10-31T07:26:26;26.87;;;17.57;;
17283;SDS011;8760;52.248;20.952;2022-10-31T07:28:53;23.47;;;17.70;;
17283;SDS011;8760;52.248;20.952;2022-10-31T07:31:22;30.10;;;18.00;;
17283;SDS011;8760;52.248;20.952;2022-10-31T07:33:49;20.73;;;15.87;;
17283;SDS011;8760;52.248;20.952;2022-10-31T07:36:19;21.67;;;16.03;;
17283;SDS011;8760;52.248;20.952;2022-10-31T07:38:46;23.77;;;16.17;;
17283;SDS011;8760;52.248;20.952;2022-10-31T07:41:13;26.20;;;16.13;;
17283;SDS011;8760;52.248;20.952;2022-10-31T07:43:39;21.07;;;15.67;;
17283;SDS011;8760;52.248;20.952;2022-10-31T07:46:06;25.13;;;17.33;;
17283;SDS011;8760;52.248;20.952;2022-10-31T07:48:35;23.93;;;16.10;;
17283;SDS011;8760;52.248;20.952;2022-10-31T07:51:04;22.33;;;14.83;;
17283;SDS011;8760;52.248;20.952;2022-10-31T07:53:32;22.27;;;14.20;;
17283;SDS011;8760;52.248;20.952;2022-10-31T07:55:58;23.57;;;15.23;;
17283;SDS011;8760;52.248;20.952;2022-10-31T07:58:25;20.20;;;14.50;;
17283;SDS011;8760;52.248;20.952;2022-10-31T08:00:52;18.47;;;13.87;;
17283;SDS011;8760;52.248;20.952;2022-10-31T08:03:19;22.17;;;14.20;;
17283;SDS011;8760;52.248;20.952;2022-10-31T08:05:47;18.60;;;14.30;;
17283;SDS011;8760;52.248;20.952;2022-10-31T08:08:14;20.27;;;14.43;;
17283;SDS011;8760;52.248;20.952;2022-10-31T08:10:41;16.93;;;12.70;;
17283;SDS011;8760;52.248;20.952;2022-10-31T08:13:09;19.13;;;13.50;;
17283;SDS011;8760;52.248;20.952;2022-10-31T08:15:38;15.35;;;12.57;;
17283;SDS011;8760;52.248;20.952;2022-10-31T08:18:06;16.65;;;12.48;;
17283;SDS011;8760;52.248;20.952;2022-10-31T08:20:37;15.75;;;12.00;;
17283;SDS011;8760;52.248;20.952;2022-10-31T08:23:06;15.13;;;11.98;;
17283;SDS011;8760;52.248;20.952;2022-10-31T08:25:33;15.18;;;11.55;;
17283;SDS011;8760;52.248;20.952;2022-10-31T08:28:01;15.15;;;11.93;;
17283;SDS011;8760;52.248;20.952;2022-10-31T08:30:29;17.45;;;12.15;;
17283;SDS011;8760;52.248;20.952;2022-10-31T08:32:58;14.32;;;11.35;;
17283;SDS011;8760;52.248;20.952;2022-10-31T08:35:29;17.45;;;11.93;;
17283;SDS011;8760;52.248;20.952;2022-10-31T08:37:56;17.10;;;11.90;;
17283;SDS011;8760;52.248;20.952;2022-10-31T08:40:25;15.95;;;11.55;;
17283;SDS011;8760;52.248;20.952;2022-10-31T08:42:56;17.42;;;12.02;;
17283;SDS011;8760;52.248;20.952;2022-10-31T08:45:24;17.77;;;12.43;;
17283;SDS011;8760;52.248;20.952;2022-10-31T08:47:52;14.00;;;12.20;;
17283;SDS011;8760;52.248;20.952;2022-10-31T08:50:22;15.50;;;12.57;;
17283;SDS011;8760;52.248;20.952;2022-10-31T08:52:49;15.98;;;11.88;;
17283;SDS011;8760;52.248;20.952;2022-10-31T08:55:16;21.42;;;13.70;;
17283;SDS011;8760;52.248;20.952;2022-10-31T08:57:44;14.82;;;12.80;;
17283;SDS011;8760;52.248;20.952;2022-10-31T09:00:11;15.02;;;13.30;;
17283;SDS011;8760;52.248;20.952;2022-10-31T09:02:38;17.40;;;13.98;;
17283;SDS011;8760;52.248;20.952;2022-10-31T09:05:05;18.08;;;15.02;;
17283;SDS011;8760;52.248;20.952;2022-10-31T09:07:33;18.67;;;15.35;;
17283;SDS011;8760;52.248;20.952;2022-10-31T09:10:00;18.75;;;14.40;;
17283;SDS011;8760;52.248;20.952;2022-10-31T09:12:27;15.77;;;14.02;;
17283;SDS011;8760;52.248;20.952;2022-10-31T09:14:55;17.92;;;14.13;;
17283;SDS011;8760;52.248;20.952;2022-10-31T09:17:22;15.93;;;14.02;;
17283;SDS011;8760;52.248;20.952;2022-10-31T09:19:49;16.38;;;13.77;;
17283;SDS011;8760;52.248;20.952;2022-10-31T09:22:16;17.20;;;13.38;;
17283;SDS011;8760;52.248;20.952;2022-10-31T09:24:43;16.05;;;13.50;;
17283;SDS011;8760;52.248;20.952;2022-10-31T09:27:09;23.25;;;14.88;;
17283;SDS011;8760;52.248;20.952;2022-10-31T09:29:36;16.77;;;14.80;;
17283;SDS011;8760;52.248;20.952;2022-10-31T09:32:05;14.93;;;13.32;;
17283;SDS011;8760;52.248;20.952;2022-10-31T09:34:32;13.60;;;12.20;;
17283;SDS011;8760;52.248;20.952;2022-10-31T09:36:59;14.82;;;11.82;;
17283;SDS011;8760;52.248;20.952;2022-10-31T09:39:25;16.25;;;12.55;;
17283;SDS011;8760;52.248;20.952;2022-10-31T09:41:59;15.30;;;13.52;;
17283;SDS011;8760;52.248;20.952;2022-10-31T09:44:39;15.00;;;12.57;;
17283;SDS011;8760;52.248;20.952;2022-10-31T09:47:16;14.50;;;12.70;;
17283;SDS011;8760;52.248;20.952;2022-10-31T09:49:57;17.15;;;13.38;;
17283;SDS011;8760;52.248;20.952;2022-10-31T09:52:33;17.63;;;13.45;;
17283;SDS011;8760;52.248;20.952;2022-10-31T09:55:04;14.48;;;12.82;;
17283;SDS011;8760;52.248;20.952;2022-10-31T09:57:36;14.45;;;12.95;;
17283;SDS011;8760;52.248;20.952;2022-10-31T10:00:06;15.05;;;13.32;;
17283;SDS011;8760;52.248;20.952;2022-10-31T10:02:39;15.43;;;13.07;;
17283;SDS011;8760;52.248;20.952;2022-10-31T10:05:11;16.60;;;14.07;;
17283;SDS011;8760;52.248;20.952;2022-10-31T10:07:43;17.20;;;14.23;;
17283;SDS011;8760;52.248;20.952;2022-10-31T10:10:16;14.98;;;13.18;;
17283;SDS011;8760;52.248;20.952;2022-10-31T10:12:55;15.98;;;13.82;;
17283;SDS011;8760;52.248;20.952;2022-10-31T10:15:44;14.43;;;12.80;;
17283;SDS011;8760;52.248;20.952;2022-10-31T10:18:25;14.90;;;13.35;;
17283;SDS011;8760;52.248;20.952;2022-10-31T10:21:04;16.05;;;12.82;;
17283;SDS011;8760;52.248;20.952;2022-10-31T10:23:42;14.77;;;12.93;;
17283;SDS011;8760;52.248;20.952;2022-10-31T10:26:18;15.70;;;13.98;;
17283;SDS011;8760;52.248;20.952;2022-10-31T10:28:47;16.38;;;13.80;;
17283;SDS011;8760;52.248;20.952;2022-10-31T10:31:16;17.27;;;13.13;;
17283;SDS011;8760;52.248;20.952;2022-10-31T10:33:51;15.23;;;13.60;;
17283;SDS011;8760;52.248;20.952;2022-10-31T10:36:27;14.90;;;13.50;;
17283;SDS011;8760;52.248;20.952;2022-10-31T10:39:02;16.67;;;13.68;;
17283;SDS011;8760;52.248;20.952;2022-10-31T10:41:33;17.33;;;13.95;;
17283;SDS011;8760;52.248;20.952;2022-10-31T10:44:00;17.50;;;14.30;;
17283;SDS011;8760;52.248;20.952;2022-10-31T10:46:29;17.10;;;14.30;;
17283;SDS011;8760;52.248;20.952;2022-10-31T10:49:27;19.92;;;14.90;;
17283;SDS011;8760;52.248;20.952;2022-10-31T10:51:59;15.40;;;13.93;;
17283;SDS011;8760;52.248;20.952;2022-10-31T10:54:43;16.65;;;14.60;;
17283;SDS011;8760;52.248;20.952;2022-10-31T11:00:19;15.75;;;14.23;;
17283;SDS011;8760;52.248;20.952;2022-10-31T11:02:47;19.23;;;16.10;;
17283;SDS011;8760;52.248;20.952;2022-10-31T11:05:18;17.48;;;15.63;;
17283;SDS011;8760;52.248;20.952;2022-10-31T11:07:49;18.45;;;16.00;;
17283;SDS011;8760;52.248;20.952;2022-10-31T11:10:16;19.15;;;16.00;;
17283;SDS011;8760;52.248;20.952;2022-10-31T11:12:44;19.75;;;16.42;;
17283;SDS011;8760;52.248;20.952;2022-10-31T11:15:23;18.88;;;16.88;;
17283;SDS011;8760;52.248;20.952;2022-10-31T11:17:52;20.98;;;17.42;;
17283;SDS011;8760;52.248;20.952;2022-10-31T11:20:25;19.95;;;17.85;;
17283;SDS011;8760;52.248;20.952;2022-10-31T11:23:04;19.25;;;17.35;;
17283;SDS011;8760;52.248;20.952;2022-10-31T11:25:47;20.42;;;17.33;;
17283;SDS011;8760;52.248;20.952;2022-10-31T11:28:15;19.90;;;16.50;;
17283;SDS011;8760;52.248;20.952;2022-10-31T11:30:43;22.05;;;17.33;;
17283;SDS011;8760;52.248;20.952;2022-10-31T11:33:14;20.67;;;18.20;;
17283;SDS011;8760;52.248;20.952;2022-10-31T11:35:46;23.27;;;17.63;;
17283;SDS011;8760;52.248;20.952;2022-10-31T11:38:15;19.52;;;16.88;;
17283;SDS011;8760;52.248;20.952;2022-10-31T11:40:52;19.15;;;17.08;;
17283;SDS011;8760;52.248;20.952;2022-10-31T11:43:22;18.95;;;16.95;;
17283;SDS011;8760;52.248;20.952;2022-10-31T11:45:49;19.95;;;16.73;;
17283;SDS011;8760;52.248;20.952;2022-10-31T11:48:17;20.33;;;17.20;;
17283;SDS011;8760;52.248;20.952;2022-10-31T11:50:51;18.20;;;16.30;;
17283;SDS011;8760;52.248;20.952;2022-10-31T11:53:20;19.35;;;16.48;;
17283;SDS011;8760;52.248;20.952;2022-10-31T11:56:00;24.00;;;16.92;;
17283;SDS011;8760;52.248;20.952;2022-10-31T11:58:29;19.35;;;17.45;;
17283;SDS011;8760;52.248;20.952;2022-10-31T12:00:57;18.25;;;16.15;;
17283;SDS011;8760;52.248;20.952;2022-10-31T12:03:27;20.00;;;16.45;;
17283;SDS011;8760;52.248;20.952;2022-10-31T12:06:06;17.77;;;15.13;;
17283;SDS011;8760;52.248;20.952;2022-10-31T12:08:37;19.02;;;15.82;;
17283;SDS011;8760;52.248;20.952;2022-10-31T12:11:08;19.02;;;16.40;;
17283;SDS011;8760;52.248;20.952;2022-10-31T12:13:45;17.73;;;15.13;;
17283;SDS011;8760;52.248;20.952;2022-10-31T12:16:26;18.13;;;16.00;;
17283;SDS011;8760;52.248;20.952;2022-10-31T12:18:58;19.45;;;16.20;;
17283;SDS011;8760;52.248;20.952;2022-10-31T12:21:44;19.60;;;15.63;;
17283;SDS011;8760;52.248;20.952;2022-10-31T12:24:24;17.92;;;15.88;;
17283;SDS011;8760;52.248;20.952;2022-10-31T12:27:01;18.98;;;16.83;;
17283;SDS011;8760;52.248;20.952;2022-10-31T12:29:51;17.77;;;15.32;;
17283;SDS011;8760;52.248;20.952;2022-10-31T12:35:44;19.27;;;16.15;;
17283;SDS011;8760;52.248;20.952;2022-10-31T12:41:34;22.70;;;15.23;;
17283;SDS011;8760;52.248;20.952;2022-10-31T12:44:13;23.80;;;16.17;;
17283;SDS011;8760;52.248;20.952;2022-10-31T12:46:55;22.90;;;17.48;;
17283;SDS011;8760;52.248;20.952;2022-10-31T12:49:36;22.95;;;18.08;;
17283;SDS011;8760;52.248;20.952;2022-10-31T12:52:15;26.90;;;19.20;;
17283;SDS011;8760;52.248;20.952;2022-10-31T12:54:55;24.77;;;19.42;;
17283;SDS011;8760;52.248;20.952;2022-10-31T12:57:39;29.83;;;20.08;;
17283;SDS011;8760;52.248;20.952;2022-10-31T13:00:11;27.27;;;20.85;;
17283;SDS011;8760;52.248;20.952;2022-10-31T13:02:42;26.23;;;19.85;;
17283;SDS011;8760;52.248;20.952;2022-10-31T13:05:17;25.55;;;19.60;;
17283;SDS011;8760;52.248;20.952;2022-10-31T13:07:48;25.80;;;19.38;;
17283;SDS011;8760;52.248;20.952;2022-10-31T13:10:19;25.42;;;20.33;;
17283;SDS011;8760;52.248;20.952;2022-10-31T13:12:51;26.83;;;19.33;;
17283;SDS011;8760;52.248;20.952;2022-10-31T13:15:23;29.08;;;19.95;;
17283;SDS011;8760;52.248;20.952;2022-10-31T13:17:53;27.45;;;19.98;;
17283;SDS011;8760;52.248;20.952;2022-10-31T13:20:24;30.98;;;21.20;;
17283;SDS011;8760;52.248;20.952;2022-10-31T13:25:44;30.02;;;21.70;;
17283;SDS011;8760;52.248;20.952;2022-10-31T13:28:19;29.15;;;21.25;;
17283;SDS011;8760;52.248;20.952;2022-10-31T13:30:54;29.67;;;21.90;;
17283;SDS011;8760;52.248;20.952;2022-10-31T13:33:22;27.33;;;20.80;;
17283;SDS011;8760;52.248;20.952;2022-10-31T13:35:54;26.00;;;20.15;;
17283;SDS011;8760;52.248;20.952;2022-10-31T13:38:27;32.85;;;20.48;;
17283;SDS011;8760;52.248;20.952;2022-10-31T13:41:01;30.75;;;21.27;;
17283;SDS011;8760;52.248;20.952;2022-10-31T13:43:36;28.35;;;21.83;;
17283;SDS011;8760;52.248;20.952;2022-10-31T13:46:21;26.52;;;20.27;;
17283;SDS011;8760;52.248;20.952;2022-10-31T13:48:49;29.58;;;20.02;;
17283;SDS011;8760;52.248;20.952;2022-10-31T13:51:23;30.80;;;19.65;;
17283;SDS011;8760;52.248;20.952;2022-10-31T13:53:57;31.02;;;20.73;;
17283;SDS011;8760;52.248;20.952;2022-10-31T13:56:25;28.95;;;20.55;;
17283;SDS011;8760;52.248;20.952;2022-10-31T13:59:03;30.00;;;20.60;;
17283;SDS011;8760;52.248;20.952;2022-10-31T14:01:46;33.63;;;20.65;;
17283;SDS011;8760;52.248;20.952;2022-10-31T14:04:18;34.80;;;21.17;;
17283;SDS011;8760;52.248;20.952;2022-10-31T14:06:51;25.60;;;19.80;;
17283;SDS011;8760;52.248;20.952;2022-10-31T14:09:23;25.70;;;21.10;;
17283;SDS011;8760;52.248;20.952;2022-10-31T14:11:53;28.27;;;21.63;;
17283;SDS011;8760;52.248;20.952;2022-10-31T14:14:23;29.83;;;22.05;;
17283;SDS011;8760;52.248;20.952;2022-10-31T14:16:56;29.55;;;21.23;;
17283;SDS011;8760;52.248;20.952;2022-10-31T14:19:24;29.05;;;22.13;;
17283;SDS011;8760;52.248;20.952;2022-10-31T14:21:52;30.50;;;22.42;;
17283;SDS011;8760;52.248;20.952;2022-10-31T14:30:12;35.63;;;24.30;;
17283;SDS011;8760;52.248;20.952;2022-10-31T14:32:41;35.25;;;24.35;;
17283;SDS011;8760;52.248;20.952;2022-10-31T14:35:12;40.15;;;25.48;;
17283;SDS011;8760;52.248;20.952;2022-10-31T14:37:49;35.57;;;26.03;;
17283;SDS011;8760;52.248;20.952;2022-10-31T14:40:33;38.08;;;26.15;;
17283;SDS011;8760;52.248;20.952;2022-10-31T14:43:28;37.70;;;27.37;;
17283;SDS011;8760;52.248;20.952;2022-10-31T14:46:14;37.17;;;26.63;;
17283;SDS011;8760;52.248;20.952;2022-10-31T14:48:53;37.67;;;27.30;;
17283;SDS011;8760;52.248;20.952;2022-10-31T14:51:34;36.07;;;25.23;;
17283;SDS011;8760;52.248;20.952;2022-10-31T14:54:05;37.00;;;25.10;;
17283;SDS011;8760;52.248;20.952;2022-10-31T14:56:37;39.00;;;24.87;;
17283;SDS011;8760;52.248;20.952;2022-10-31T14:59:12;34.27;;;25.10;;
17283;SDS011;8760;52.248;20.952;2022-10-31T15:01:49;35.10;;;24.77;;